createdAt,value
2018-01-12T00:00:22.792Z,58.58
2018-01-12T00:02:50.303Z,57.83
2018-01-12T00:05:17.817Z,51.42
2018-01-12T00:07:45.420Z,63.13
2018-01-12T00:10:12.926Z,62.00
2018-01-12T00:12:40.452Z,62.40
2018-01-12T00:15:07.994Z,78.95
2018-01-12T00:17:35.554Z,72.55
2018-01-12T00:20:03.113Z,60.88
2018-01-12T00:22:30.769Z,60.08
2018-01-12T00:24:59.050Z,74.57
2018-01-12T00:27:26.565Z,75.22
2018-01-12T00:29:54.167Z,74.50
2018-01-12T00:32:21.730Z,72.43
2018-01-12T00:34:49.287Z,61.97
2018-01-12T00:37:17.054Z,60.40
2018-01-12T00:39:44.610Z,56.35
2018-01-12T00:42:12.177Z,68.07
2018-01-12T00:44:39.823Z,50.95
2018-01-12T00:47:07.338Z,57.95
2018-01-12T00:49:34.854Z,66.90
2018-01-12T00:52:02.609Z,55.92
2018-01-12T00:54:30.129Z,69.40
2018-01-12T00:56:57.649Z,73.00
2018-01-12T00:59:25.235Z,68.60
2018-01-12T01:01:52.750Z,61.63
2018-01-12T01:04:20.305Z,61.37
2018-01-12T01:06:47.889Z,62.50
2018-01-12T01:09:15.420Z,66.40
2018-01-12T01:11:42.980Z,65.12
2018-01-12T01:14:10.642Z,65.40
2018-01-12T01:16:38.216Z,67.50
2018-01-12T01:19:05.894Z,57.00
2018-01-12T01:21:33.462Z,57.15
2018-01-12T01:24:00.980Z,54.50
2018-01-12T01:26:28.484Z,60.60
2018-01-12T01:28:56.291Z,60.20
2018-01-12T01:31:23.815Z,56.53
2018-01-12T01:33:51.336Z,56.30
2018-01-12T01:36:18.898Z,62.85
2018-01-12T01:38:46.413Z,68.28
2018-01-12T01:41:13.932Z,63.42
2018-01-12T01:43:41.477Z,59.42
2018-01-12T01:46:09.013Z,55.75
2018-01-12T01:48:41.590Z,56.92
2018-01-12T01:51:09.149Z,49.28
2018-01-12T01:53:36.709Z,60.45
2018-01-12T01:56:04.277Z,56.03
2018-01-12T01:58:31.827Z,49.35
2018-01-12T02:00:59.338Z,80.78
2018-01-12T02:03:27.314Z,62.22
2018-01-12T02:05:54.982Z,67.35
2018-01-12T02:08:22.489Z,53.13
2018-01-12T02:10:50.460Z,72.12
2018-01-12T02:13:17.967Z,69.97
2018-01-12T02:15:45.482Z,74.10
2018-01-12T02:18:13.034Z,68.43
2018-01-12T02:20:40.575Z,65.62
2018-01-12T02:23:08.089Z,78.60
2018-01-12T02:25:35.898Z,71.75
2018-01-12T02:28:03.405Z,64.90
2018-01-12T02:30:30.928Z,68.43
2018-01-12T02:32:58.679Z,74.78
2018-01-12T02:35:26.194Z,67.60
2018-01-12T02:37:53.705Z,80.03
2018-01-12T02:40:21.655Z,65.53
2018-01-12T02:42:49.178Z,64.00
2018-01-12T02:45:16.702Z,68.03
2018-01-12T02:47:44.649Z,89.72
2018-01-12T02:50:12.207Z,80.93
2018-01-12T02:52:39.717Z,69.47
2018-01-12T02:55:07.272Z,78.03
2018-01-12T02:57:34.783Z,85.68
2018-01-12T03:00:02.302Z,83.30
2018-01-12T03:02:30.104Z,81.20
2018-01-12T03:04:57.664Z,74.22
2018-01-12T03:07:25.234Z,73.82
2018-01-12T03:09:52.824Z,82.82
2018-01-12T03:12:20.341Z,79.97
2018-01-12T03:14:47.901Z,78.25
2018-01-12T03:17:15.664Z,74.40
2018-01-12T03:19:43.178Z,74.93
2018-01-12T03:22:10.693Z,78.03
2018-01-12T03:24:38.649Z,66.78
2018-01-12T03:27:06.209Z,76.45
2018-01-12T03:29:33.721Z,75.68
2018-01-12T03:32:01.410Z,69.85
2018-01-12T03:34:28.930Z,73.37
2018-01-12T03:36:56.446Z,56.45
2018-01-12T03:39:24.209Z,68.60
2018-01-12T03:41:51.722Z,68.90
2018-01-12T03:44:19.234Z,71.00
2018-01-12T03:46:47.069Z,55.22
2018-01-12T03:49:14.578Z,53.95
2018-01-12T03:51:42.089Z,55.03
2018-01-12T03:54:09.630Z,59.42
2018-01-12T03:56:37.143Z,57.80
2018-01-12T03:59:04.681Z,61.17
2018-01-12T04:01:32.237Z,55.58
2018-01-12T04:03:59.746Z,52.28
2018-01-12T04:06:27.257Z,50.22
2018-01-12T04:08:55.021Z,52.03
2018-01-12T04:11:22.542Z,54.60
2018-01-12T04:13:50.058Z,53.40
2018-01-12T04:16:17.714Z,49.72
2018-01-12T04:18:45.256Z,59.53
2018-01-12T04:21:12.829Z,52.08
2018-01-12T04:23:40.393Z,47.75
2018-01-12T04:26:07.935Z,52.10
2018-01-12T04:28:35.446Z,46.20
2018-01-12T04:31:03.003Z,57.38
2018-01-12T04:33:30.518Z,59.20
2018-01-12T04:35:58.376Z,55.00
2018-01-12T04:38:26.345Z,49.03
2018-01-12T04:40:53.853Z,59.90
2018-01-12T04:43:21.772Z,47.88
2018-01-12T04:45:49.514Z,59.03
2018-01-12T04:48:17.030Z,53.60
2018-01-12T04:50:44.553Z,53.78
2018-01-12T04:53:12.498Z,43.67
2018-01-12T04:55:40.009Z,48.15
2018-01-12T04:58:07.686Z,52.05
2018-01-12T05:00:35.488Z,50.12
2018-01-12T05:03:03.011Z,55.35
2018-01-12T05:05:30.543Z,56.05
2018-01-12T05:07:58.386Z,56.13
2018-01-12T05:10:25.945Z,48.10
2018-01-12T05:12:53.506Z,55.90
2018-01-12T05:15:21.473Z,53.87
2018-01-12T05:17:49.032Z,56.97
2018-01-12T05:20:16.592Z,52.28
2018-01-12T05:22:44.546Z,51.25
2018-01-12T05:25:12.053Z,47.62
2018-01-12T05:27:39.613Z,57.15
2018-01-12T05:30:07.175Z,54.70
2018-01-12T05:32:34.698Z,53.80
2018-01-12T05:35:02.253Z,55.80
2018-01-12T05:37:29.807Z,45.38
2018-01-12T05:39:57.371Z,57.03
2018-01-12T05:42:24.931Z,53.10
2018-01-12T05:44:52.670Z,45.60
2018-01-12T05:47:20.183Z,47.15
2018-01-12T05:49:47.704Z,58.25
2018-01-12T05:52:15.275Z,57.15
2018-01-12T05:54:42.832Z,45.83
2018-01-12T05:57:10.389Z,52.28
2018-01-12T05:59:37.942Z,48.97
2018-01-12T06:02:17.414Z,47.75
2018-01-12T06:04:57.358Z,51.05
2018-01-12T06:07:24.958Z,50.95
2018-01-12T06:09:52.485Z,63.22
2018-01-12T06:12:20.328Z,61.92
2018-01-12T06:14:47.841Z,75.80
2018-01-12T06:17:15.349Z,75.00
2018-01-12T06:19:42.913Z,113.75
2018-01-12T06:22:10.451Z,93.12
2018-01-12T06:24:37.975Z,69.82
2018-01-12T06:27:05.545Z,65.22
2018-01-12T06:29:33.058Z,61.58
2018-01-12T06:32:00.630Z,74.95
2018-01-12T06:34:28.557Z,62.78
2018-01-12T06:36:56.115Z,65.15
2018-01-12T06:39:23.689Z,62.25
2018-01-12T06:41:51.262Z,70.70
2018-01-12T06:44:18.795Z,71.22
2018-01-12T06:46:46.351Z,57.67
2018-01-12T06:49:14.298Z,76.22
2018-01-12T06:51:41.822Z,72.62
2018-01-12T06:54:09.337Z,80.72
2018-01-12T06:56:36.895Z,65.80
2018-01-12T06:59:04.454Z,70.80
2018-01-12T07:01:31.958Z,80.47
2018-01-12T07:03:59.753Z,120.43
2018-01-12T07:06:27.275Z,57.60
2018-01-12T07:08:54.786Z,83.97
2018-01-12T07:11:22.351Z,63.38
2018-01-12T07:13:49.919Z,54.53
2018-01-12T07:16:17.483Z,76.93
2018-01-12T07:18:45.064Z,53.22
2018-01-12T07:21:24.488Z,55.65
2018-01-12T07:23:52.033Z,55.95
2018-01-12T07:26:19.585Z,49.33
2018-01-12T07:28:47.144Z,46.55
2018-01-12T07:31:14.853Z,61.65
2018-01-12T07:33:42.374Z,49.55
2018-01-12T07:36:09.892Z,42.97
2018-01-12T07:38:37.994Z,52.20
2018-01-12T07:41:05.556Z,57.58
2018-01-12T07:43:33.122Z,45.65
2018-01-12T07:46:00.858Z,45.03
2018-01-12T07:48:28.370Z,54.83
2018-01-12T07:50:55.892Z,53.03
2018-01-12T07:53:23.581Z,41.55
2018-01-12T07:55:51.113Z,45.35
2018-01-12T07:58:18.681Z,56.15
2018-01-12T08:00:51.830Z,42.95
2018-01-12T08:03:19.362Z,51.33
2018-01-12T08:05:46.868Z,48.35
2018-01-12T08:08:14.438Z,43.40
2018-01-12T08:10:41.945Z,49.50
2018-01-12T08:13:09.457Z,46.90
2018-01-12T08:15:37.016Z,40.97
2018-01-12T08:18:04.573Z,33.33
2018-01-12T08:20:32.133Z,31.85
2018-01-12T08:23:00.206Z,43.47
2018-01-12T08:25:27.764Z,40.58
2018-01-12T08:27:55.278Z,34.33
2018-01-12T08:30:23.165Z,43.35
2018-01-12T08:32:50.673Z,31.23
2018-01-12T08:35:18.217Z,37.17
2018-01-12T08:37:45.761Z,33.08
2018-01-12T08:40:13.277Z,35.67
2018-01-12T08:42:40.791Z,32.38
2018-01-12T08:45:08.361Z,30.65
2018-01-12T08:47:35.872Z,34.60
2018-01-12T08:50:03.385Z,39.28
2018-01-12T08:52:31.219Z,35.97
2018-01-12T08:54:58.849Z,32.55
2018-01-12T08:57:26.378Z,35.80
2018-01-12T08:59:54.148Z,38.90
2018-01-12T09:02:21.660Z,39.97
2018-01-12T09:04:49.220Z,39.38
2018-01-12T09:07:16.961Z,49.90
2018-01-12T09:09:44.538Z,45.70
2018-01-12T09:12:12.058Z,28.10
2018-01-12T09:14:50.601Z,36.78
2018-01-12T09:17:30.261Z,34.13
2018-01-12T09:20:10.210Z,35.38
2018-01-12T09:22:47.498Z,28.92
2018-01-12T09:25:26.115Z,31.80
2018-01-12T09:27:53.674Z,29.42
2018-01-12T09:30:21.556Z,33.75
2018-01-12T09:32:50.045Z,43.17
2018-01-12T09:35:18.200Z,34.33
2018-01-12T09:37:45.756Z,34.22
2018-01-12T09:40:28.348Z,35.53
2018-01-12T09:42:55.863Z,41.65
2018-01-12T09:45:23.403Z,32.00
2018-01-12T09:48:15.213Z,33.50
2018-01-12T09:50:42.781Z,32.90
2018-01-12T09:53:10.290Z,32.88
2018-01-12T09:55:38.065Z,37.78
2018-01-12T09:58:05.578Z,35.13
2018-01-12T10:00:50.289Z,31.35
2018-01-12T10:03:17.792Z,33.10
2018-01-12T10:05:45.327Z,31.25
2018-01-12T10:08:16.999Z,27.75
2018-01-12T10:10:45.054Z,33.78
2018-01-12T10:13:12.614Z,37.75
2018-01-12T10:15:40.479Z,36.50
2018-01-12T10:21:27.932Z,31.30
2018-01-12T10:23:55.460Z,32.15
2018-01-12T10:26:22.982Z,34.92
2018-01-12T10:29:02.378Z,31.45
2018-01-12T10:31:39.785Z,32.92
2018-01-12T10:34:08.174Z,31.83
2018-01-12T10:36:40.436Z,35.88
2018-01-12T10:39:19.856Z,31.70
2018-01-12T10:41:59.181Z,34.60
2018-01-12T10:44:26.929Z,41.42
2018-01-12T10:47:19.012Z,39.53
2018-01-12T10:49:58.306Z,29.12
2018-01-12T10:52:31.901Z,27.70
2018-01-12T10:54:59.473Z,25.98
2018-01-12T10:57:26.995Z,37.30
2018-01-12T10:59:54.515Z,30.20
2018-01-12T11:02:22.249Z,24.15
2018-01-12T11:04:49.762Z,24.12
2018-01-12T11:07:17.275Z,26.45
2018-01-12T11:09:45.125Z,34.08
2018-01-12T11:12:12.641Z,27.67
2018-01-12T11:14:40.161Z,32.30
2018-01-12T11:17:07.742Z,23.90
2018-01-12T11:19:35.266Z,19.17
2018-01-12T11:22:02.785Z,28.83
2018-01-12T11:24:30.680Z,25.88
2018-01-12T11:26:58.194Z,21.75
2018-01-12T11:29:25.717Z,27.27
2018-01-12T11:31:53.558Z,19.00
2018-01-12T11:34:21.533Z,24.10
2018-01-12T11:36:49.058Z,35.20
2018-01-12T11:39:16.617Z,21.97
2018-01-12T11:41:44.138Z,20.60
2018-01-12T11:44:11.662Z,25.23
2018-01-12T11:46:39.210Z,38.23
2018-01-12T11:49:06.725Z,25.60
2018-01-12T11:51:34.246Z,19.90
2018-01-12T11:54:01.921Z,24.30
2018-01-12T11:56:29.430Z,22.23
2018-01-12T11:58:56.942Z,29.50
2018-01-12T12:01:24.494Z,30.87
2018-01-12T12:03:52.055Z,23.73
2018-01-12T12:06:19.615Z,24.13
2018-01-12T12:08:47.162Z,25.90
2018-01-12T12:11:14.678Z,28.80
2018-01-12T12:13:42.193Z,25.97
2018-01-12T12:16:09.762Z,24.42
2018-01-12T12:18:37.308Z,28.25
2018-01-12T12:21:04.828Z,25.58
2018-01-12T12:23:32.406Z,31.52
2018-01-12T12:25:59.929Z,28.87
2018-01-12T12:28:27.446Z,25.30
2018-01-12T12:30:55.616Z,25.27
2018-01-12T12:33:23.125Z,26.55
2018-01-12T12:35:50.638Z,27.02
2018-01-12T12:38:18.600Z,24.42
2018-01-12T12:40:46.159Z,27.83
2018-01-12T12:43:13.669Z,21.10
2018-01-12T12:45:41.482Z,30.05
2018-01-12T12:48:08.993Z,25.62
2018-01-12T12:50:36.506Z,24.20
2018-01-12T12:53:04.238Z,29.98
2018-01-12T12:55:31.770Z,24.80
2018-01-12T12:58:00.284Z,29.30
2018-01-12T13:00:28.374Z,23.73
2018-01-12T13:02:55.943Z,28.10
2018-01-12T13:05:23.535Z,28.45
2018-01-12T13:07:51.463Z,32.30
2018-01-12T13:10:19.007Z,26.67
2018-01-12T13:12:46.681Z,28.25
2018-01-12T13:15:14.426Z,31.10
2018-01-12T13:17:42.113Z,30.05
2018-01-12T13:20:09.664Z,22.90
2018-01-12T13:22:37.514Z,31.48
2018-01-12T13:25:05.055Z,24.45
2018-01-12T13:27:32.568Z,46.50
2018-01-12T13:30:00.621Z,47.10
2018-01-12T13:32:28.175Z,28.52
2018-01-12T13:34:55.692Z,23.87
2018-01-12T13:37:23.602Z,27.77
2018-01-12T13:39:51.366Z,25.35
2018-01-12T13:42:18.925Z,21.77
2018-01-12T13:44:47.100Z,29.95
2018-01-12T13:47:14.658Z,28.58
2018-01-12T13:49:42.422Z,98.32
2018-01-12T13:52:10.187Z,61.78
2018-01-12T13:54:37.843Z,75.80
2018-01-12T13:57:05.408Z,28.10
2018-01-12T13:59:33.187Z,27.92
2018-01-12T14:02:01.037Z,28.58
2018-01-12T14:04:28.863Z,23.67
2018-01-12T14:06:56.570Z,30.12
2018-01-12T14:09:24.145Z,28.67
2018-01-12T14:11:51.684Z,29.52
2018-01-12T14:14:19.450Z,27.65
2018-01-12T14:16:47.112Z,24.33
2018-01-12T14:19:15.629Z,28.75
2018-01-12T14:21:43.554Z,28.15
2018-01-12T14:24:11.219Z,29.73
2018-01-12T14:26:38.984Z,30.62
2018-01-12T14:29:06.977Z,37.10
2018-01-12T14:31:34.795Z,36.88
2018-01-12T14:34:02.379Z,33.95
2018-01-12T14:36:30.233Z,35.90
2018-01-12T14:38:58.220Z,26.00
2018-01-12T14:41:26.079Z,82.75
2018-01-12T14:43:53.949Z,44.72
2018-01-12T14:46:21.533Z,31.62
2018-01-12T14:48:49.065Z,28.73
2018-01-12T14:51:16.745Z,28.70
2018-01-12T14:53:44.517Z,29.50
2018-01-12T14:56:12.075Z,30.30
2018-01-12T14:58:39.948Z,39.45
2018-01-12T15:01:07.525Z,33.42
2018-01-12T15:03:35.238Z,40.38
2018-01-12T15:06:03.134Z,30.27
2018-01-12T15:08:31.792Z,33.45
2018-01-12T15:10:59.368Z,33.05
2018-01-12T15:13:26.929Z,40.22
2018-01-12T15:15:54.476Z,31.55
2018-01-12T15:18:22.231Z,34.50
2018-01-12T15:20:49.793Z,39.30
2018-01-12T15:23:17.312Z,37.65
2018-01-12T15:25:44.839Z,30.80
2018-01-12T15:28:12.792Z,32.65
2018-01-12T15:30:41.562Z,35.17
2018-01-12T15:33:09.130Z,38.40
2018-01-12T15:35:37.025Z,30.70
2018-01-12T15:38:04.566Z,35.63
2018-01-12T15:40:32.312Z,46.55
2018-01-12T15:42:59.920Z,39.30
2018-01-12T15:45:27.446Z,31.30
2018-01-12T15:47:55.006Z,34.40
2018-01-12T15:50:22.753Z,36.85
2018-01-12T15:52:50.313Z,44.00
2018-01-12T15:55:17.872Z,33.33
2018-01-12T15:57:45.546Z,33.63
2018-01-12T16:00:13.092Z,30.60
2018-01-12T16:02:40.650Z,30.98
2018-01-12T16:05:08.722Z,39.28
2018-01-12T16:07:36.485Z,103.95
2018-01-12T16:10:04.002Z,34.83
2018-01-12T16:12:31.565Z,45.25
2018-01-12T16:14:59.103Z,38.70
2018-01-12T16:17:26.620Z,31.12
2018-01-12T16:19:54.814Z,35.47
2018-01-12T16:22:22.373Z,39.08
2018-01-12T16:24:49.913Z,40.38
2018-01-12T16:27:17.687Z,46.92
2018-01-12T16:29:45.337Z,41.97
2018-01-12T16:32:12.896Z,32.88
2018-01-12T16:34:40.557Z,41.15
2018-01-12T16:37:08.219Z,29.35
2018-01-12T16:39:36.957Z,40.60
2018-01-12T16:42:04.879Z,27.65
2018-01-12T16:44:32.740Z,32.45
2018-01-12T16:47:00.299Z,26.27
2018-01-12T16:49:27.961Z,43.90
2018-01-12T16:51:55.514Z,28.83
2018-01-12T16:54:23.078Z,32.00
2018-01-12T16:56:50.637Z,29.98
2018-01-12T16:59:18.198Z,43.83
2018-01-12T17:01:45.813Z,35.78
2018-01-12T17:04:13.416Z,31.10
2018-01-12T17:06:41.078Z,31.42
2018-01-12T17:09:08.594Z,27.55
2018-01-12T17:11:36.299Z,31.35
2018-01-12T17:14:03.878Z,33.75
2018-01-12T17:16:31.418Z,27.23
2018-01-12T17:18:59.385Z,42.20
2018-01-12T17:21:27.048Z,31.80
2018-01-12T17:23:55.018Z,37.75
2018-01-12T17:26:22.756Z,37.50
2018-01-12T17:28:50.444Z,47.85
2018-01-12T17:31:18.210Z,51.05
2018-01-12T17:33:46.995Z,47.88
2018-01-12T17:36:14.537Z,46.55
2018-01-12T17:38:42.219Z,62.95
2018-01-12T17:41:10.183Z,41.75
2018-01-12T17:43:38.820Z,46.40
2018-01-12T17:46:06.367Z,48.03
2018-01-12T17:48:34.195Z,51.33
2018-01-12T17:51:01.751Z,50.72
2018-01-12T17:53:29.333Z,44.20
2018-01-12T17:55:56.890Z,32.92
2018-01-12T17:58:24.428Z,39.55
2018-01-12T18:00:51.986Z,45.67
2018-01-12T18:03:19.752Z,49.72
2018-01-12T18:05:47.311Z,57.72
2018-01-12T18:08:14.870Z,38.55
2018-01-12T18:10:43.645Z,70.68
2018-01-12T18:13:11.169Z,63.90
2018-01-12T18:15:39.502Z,59.95
2018-01-12T18:18:07.154Z,59.83
2018-01-12T18:20:35.122Z,44.70
2018-01-12T18:23:02.887Z,42.28
2018-01-12T18:25:30.974Z,40.50
2018-01-12T18:27:58.938Z,40.17
2018-01-12T18:30:26.603Z,56.50
2018-01-12T18:32:54.852Z,39.60
2018-01-12T18:35:22.918Z,50.28
2018-01-12T18:37:51.125Z,56.42
2018-01-12T18:40:19.503Z,47.30
2018-01-12T18:42:47.459Z,46.63
2018-01-12T18:45:15.118Z,40.17
2018-01-12T18:47:43.207Z,59.83
2018-01-12T18:50:11.641Z,47.38
2018-01-12T18:52:39.929Z,59.05
2018-01-12T18:55:08.450Z,48.10
2018-01-12T18:57:36.615Z,58.70
2018-01-12T19:00:04.629Z,92.15
2018-01-12T19:02:32.954Z,55.67
2018-01-12T19:05:01.125Z,109.05
2018-01-12T19:07:29.208Z,79.40
2018-01-12T19:09:57.459Z,104.65
2018-01-12T19:12:25.438Z,74.00
2018-01-12T19:14:53.420Z,59.53
2018-01-12T19:17:21.677Z,60.33
2018-01-12T19:19:53.148Z,48.83
2018-01-12T19:22:22.226Z,50.55
2018-01-12T19:24:50.481Z,51.97
2018-01-12T19:27:18.387Z,65.75
2018-01-12T19:29:46.660Z,46.55
2018-01-12T19:32:15.045Z,53.33
2018-01-12T19:34:42.791Z,50.33
2018-01-12T19:37:10.803Z,59.65
2018-01-12T19:39:39.081Z,67.03
2018-01-12T19:42:06.907Z,67.18
2018-01-12T19:44:35.281Z,58.70
2018-01-12T19:47:03.674Z,55.10
2018-01-12T19:49:32.183Z,66.32
2018-01-12T19:52:00.321Z,64.78
2018-01-12T19:54:28.905Z,57.33
2018-01-12T19:56:57.154Z,56.45
2018-01-12T19:59:25.442Z,68.03
2018-01-12T20:01:53.974Z,48.28
2018-01-12T20:04:22.067Z,60.22
2018-01-12T20:06:51.074Z,56.20
2018-01-12T20:09:19.782Z,44.63
2018-01-12T20:11:47.765Z,48.60
2018-01-12T20:14:16.245Z,51.92
2018-01-12T20:16:44.014Z,54.67
2018-01-12T20:19:12.107Z,47.35
2018-01-12T20:21:40.151Z,56.67
2018-01-12T20:24:08.157Z,53.40
2018-01-12T20:26:36.188Z,57.80
2018-01-12T20:29:04.554Z,50.83
2018-01-12T20:31:32.496Z,51.00
2018-01-12T20:34:00.389Z,57.85
2018-01-12T20:36:28.756Z,59.92
2018-01-12T20:38:56.621Z,55.47
2018-01-12T20:41:24.570Z,52.10
2018-01-12T20:43:52.692Z,51.00
2018-01-12T20:46:20.589Z,55.67
2018-01-12T20:48:48.429Z,52.72
2018-01-12T20:51:16.599Z,55.08
2018-01-12T20:53:44.241Z,57.88
2018-01-12T20:56:13.153Z,55.72
2018-01-12T20:58:41.325Z,54.05
2018-01-12T21:01:10.008Z,56.85
2018-01-12T21:03:38.084Z,61.88
2018-01-12T21:06:06.343Z,62.45
2018-01-12T21:08:34.319Z,52.97
2018-01-12T21:11:02.290Z,49.38
2018-01-12T21:13:30.603Z,56.60
2018-01-12T21:15:58.623Z,58.65
2018-01-12T21:18:26.506Z,59.00
2018-01-12T21:20:55.440Z,69.20
2018-01-12T21:23:24.598Z,59.72
2018-01-12T21:25:52.466Z,60.22
2018-01-12T21:28:21.362Z,70.28
2018-01-12T21:30:49.319Z,78.70
2018-01-12T21:33:17.294Z,65.30
2018-01-12T21:35:45.328Z,63.25
2018-01-12T21:38:13.119Z,58.87
2018-01-12T21:40:41.097Z,82.95
2018-01-12T21:43:09.474Z,85.20
2018-01-12T21:45:37.217Z,94.03
2018-01-12T21:48:05.374Z,62.62
2018-01-12T21:50:33.975Z,64.43
2018-01-12T21:53:01.955Z,53.00
2018-01-12T21:55:29.811Z,73.07
2018-01-12T21:57:57.694Z,51.13
2018-01-12T22:00:26.583Z,57.45
2018-01-12T22:02:54.608Z,44.97
2018-01-12T22:05:22.619Z,55.58
2018-01-12T22:07:50.473Z,60.97
2018-01-12T22:10:18.341Z,50.10
2018-01-12T22:12:47.151Z,56.97
2018-01-12T22:15:14.789Z,52.83
2018-01-12T22:17:42.861Z,57.65
2018-01-12T22:20:11.575Z,55.60
2018-01-12T22:22:39.489Z,57.67
2018-01-12T22:25:07.571Z,51.33
2018-01-12T22:27:35.673Z,64.25
2018-01-12T22:30:03.433Z,68.03
2018-01-12T22:32:31.812Z,90.70
2018-01-12T22:34:59.997Z,95.85
2018-01-12T22:37:28.269Z,102.07
2018-01-12T22:39:57.328Z,75.50
2018-01-12T22:42:25.524Z,75.22
2018-01-12T22:44:53.270Z,92.43
2018-01-12T22:47:22.245Z,61.95
2018-01-12T22:49:50.464Z,64.05
2018-01-12T22:52:18.435Z,82.75
2018-01-12T22:54:46.407Z,64.53
2018-01-12T22:57:14.582Z,52.00
2018-01-12T22:59:42.351Z,66.05
2018-01-12T23:02:10.516Z,61.05
2018-01-12T23:04:38.897Z,66.55
2018-01-12T23:07:06.765Z,55.90
2018-01-12T23:09:35.032Z,61.67
2018-01-12T23:12:03.155Z,63.87
2018-01-12T23:14:30.979Z,61.80
2018-01-12T23:16:58.808Z,50.40
2018-01-12T23:19:26.396Z,55.42
2018-01-12T23:21:54.119Z,58.60
2018-01-12T23:24:21.983Z,68.07
2018-01-12T23:26:49.992Z,55.80
2018-01-12T23:29:18.688Z,63.30
2018-01-12T23:31:46.344Z,53.08
2018-01-12T23:34:14.600Z,65.32
2018-01-12T23:36:42.486Z,53.85
2018-01-12T23:39:10.246Z,65.45
2018-01-12T23:41:38.372Z,68.93
2018-01-12T23:44:06.197Z,59.28
2018-01-12T23:46:34.062Z,66.93
2018-01-12T23:49:02.028Z,67.68
2018-01-12T23:51:29.691Z,58.40
2018-01-12T23:53:57.546Z,63.95
2018-01-12T23:56:25.456Z,61.42
2018-01-12T23:58:53.028Z,54.63
